createdAt,value
2019-04-30T00:01:25.222Z,91.14
2019-04-30T00:04:19.341Z,91.16
2019-04-30T00:06:52.534Z,91.08
2019-04-30T00:09:26.226Z,90.90
2019-04-30T00:12:01.275Z,91.22
2019-04-30T00:14:37.623Z,91.58
2019-04-30T00:17:06.364Z,91.54
2019-04-30T00:19:37.708Z,90.89
2019-04-30T00:22:11.396Z,91.02
2019-04-30T00:24:49.671Z,90.53
2019-04-30T00:27:21.081Z,90.34
2019-04-30T00:29:52.922Z,90.86
2019-04-30T00:32:25.768Z,90.89
2019-04-30T00:34:57.706Z,91.00
2019-04-30T00:37:30.149Z,91.61
2019-04-30T00:40:01.356Z,91.92
2019-04-30T00:42:35.764Z,92.26
2019-04-30T00:45:11.072Z,92.12
2019-04-30T00:47:47.922Z,92.39
2019-04-30T00:50:20.244Z,92.50
2019-04-30T00:52:51.725Z,92.44
2019-04-30T00:55:22.815Z,92.38
2019-04-30T00:57:55.850Z,92.09
2019-04-30T01:00:29.615Z,91.99
2019-04-30T01:03:11.716Z,92.09
2019-04-30T01:05:46.448Z,91.83
2019-04-30T01:08:21.136Z,91.65
2019-04-30T01:10:51.303Z,91.65
2019-04-30T01:13:22.743Z,91.55
2019-04-30T01:15:53.913Z,91.55
2019-04-30T01:18:28.534Z,91.74
2019-04-30T01:21:02.992Z,92.02
2019-04-30T01:23:31.937Z,92.33
2019-04-30T01:26:04.776Z,92.22
2019-04-30T01:28:36.296Z,92.16
2019-04-30T01:31:10.493Z,92.38
2019-04-30T01:33:41.747Z,92.33
2019-04-30T01:36:13.482Z,92.63
2019-04-30T01:38:51.029Z,92.86
2019-04-30T01:41:27.364Z,93.25
2019-04-30T01:43:58.482Z,93.05
2019-04-30T01:46:31.262Z,92.80
2019-04-30T01:49:02.444Z,93.04
2019-04-30T01:51:35.435Z,93.47
2019-04-30T01:54:06.956Z,93.43
2019-04-30T01:56:51.975Z,93.40
2019-04-30T01:59:29.029Z,93.40
2019-04-30T02:02:01.718Z,93.43
2019-04-30T02:04:33.173Z,93.20
2019-04-30T02:07:05.757Z,93.05
2019-04-30T02:09:38.814Z,92.65
2019-04-30T02:12:10.022Z,92.75
2019-04-30T02:14:42.253Z,92.76
2019-04-30T02:17:14.846Z,92.81
2019-04-30T02:19:55.968Z,92.90
2019-04-30T02:22:18.967Z,93.04
2019-04-30T02:24:50.231Z,92.90
2019-04-30T02:27:21.612Z,92.75
2019-04-30T02:29:54.777Z,92.54
2019-04-30T02:32:25.929Z,92.93
2019-04-30T02:35:12.524Z,93.37
2019-04-30T02:38:02.909Z,93.36
2019-04-30T02:40:39.290Z,93.35
2019-04-30T02:43:12.178Z,93.46
2019-04-30T02:45:45.667Z,93.53
2019-04-30T02:48:20.297Z,93.59
2019-04-30T02:50:54.424Z,93.75
2019-04-30T02:54:23.838Z,93.75
2019-04-30T02:57:14.889Z,93.47
2019-04-30T03:00:21.090Z,93.73
2019-04-30T03:02:53.823Z,93.94
2019-04-30T03:05:25.066Z,93.72
2019-04-30T03:08:00.331Z,93.79
2019-04-30T03:10:31.899Z,93.55
2019-04-30T03:13:03.027Z,93.98
2019-04-30T03:15:39.244Z,93.82
2019-04-30T03:18:22.778Z,93.54
2019-04-30T03:20:59.979Z,93.36
2019-04-30T03:23:34.024Z,93.73
2019-04-30T03:26:05.372Z,93.41
2019-04-30T03:28:36.501Z,93.53
2019-04-30T03:31:12.413Z,93.72
2019-04-30T03:33:44.049Z,93.74
2019-04-30T03:36:15.623Z,94.05
2019-04-30T03:38:46.718Z,94.01
2019-04-30T03:41:20.013Z,93.95
2019-04-30T03:43:51.278Z,94.35
2019-04-30T03:46:22.848Z,94.90
2019-04-30T03:48:53.907Z,94.67
2019-04-30T03:51:25.327Z,94.37
2019-04-30T03:53:58.914Z,94.39
2019-04-30T03:56:30.010Z,94.28
2019-04-30T03:59:01.705Z,94.14
2019-04-30T04:01:54.807Z,94.07
2019-04-30T04:04:39.753Z,94.23
2019-04-30T04:07:31.348Z,94.38
2019-04-30T04:10:11.964Z,93.98
2019-04-30T04:12:43.775Z,93.72
2019-04-30T04:15:16.422Z,93.72
2019-04-30T04:17:50.468Z,93.63
2019-04-30T04:20:23.156Z,93.65
2019-04-30T04:22:54.609Z,93.28
2019-04-30T04:25:29.668Z,93.14
2019-04-30T04:28:01.858Z,93.16
2019-04-30T04:30:34.091Z,92.63
2019-04-30T04:33:19.752Z,92.25
2019-04-30T04:35:50.447Z,91.86
2019-04-30T04:38:21.553Z,85.30
2019-04-30T04:40:52.701Z,80.63
2019-04-30T04:43:25.528Z,77.14
2019-04-30T04:45:59.301Z,74.26
2019-04-30T04:48:30.883Z,74.52
2019-04-30T04:51:03.123Z,71.41
2019-04-30T04:53:34.508Z,70.34
2019-04-30T04:56:07.054Z,69.16
2019-04-30T04:58:40.138Z,67.82
2019-04-30T05:01:12.212Z,67.30
2019-04-30T05:03:44.444Z,66.30
2019-04-30T05:06:15.533Z,65.05
2019-04-30T05:08:49.227Z,62.90
2019-04-30T05:11:20.900Z,63.88
2019-04-30T05:13:51.975Z,61.08
2019-04-30T05:16:23.450Z,65.37
2019-04-30T05:18:54.584Z,66.43
2019-04-30T05:21:25.590Z,68.24
2019-04-30T05:23:56.785Z,69.61
2019-04-30T05:26:29.619Z,70.40
2019-04-30T05:29:03.803Z,70.12
2019-04-30T05:31:38.494Z,71.91
2019-04-30T05:34:10.336Z,74.13
2019-04-30T05:36:41.696Z,75.04
2019-04-30T05:39:12.826Z,75.26
2019-04-30T05:41:43.812Z,76.84
2019-04-30T05:44:15.123Z,76.95
2019-04-30T05:46:49.365Z,77.33
2019-04-30T05:49:22.432Z,78.60
2019-04-30T05:51:55.963Z,78.86
2019-04-30T05:54:26.525Z,76.76
2019-04-30T05:56:59.374Z,79.33
2019-04-30T05:59:30.849Z,78.73
2019-04-30T06:02:02.053Z,79.00
2019-04-30T06:04:35.657Z,78.04
2019-04-30T06:07:08.695Z,79.73
2019-04-30T06:12:59.857Z,79.84
2019-04-30T06:15:42.592Z,75.86
2019-04-30T06:18:18.588Z,74.96
2019-04-30T06:20:51.213Z,74.73
2019-04-30T06:23:22.422Z,69.67
2019-04-30T06:25:59.931Z,63.14
2019-04-30T06:28:29.224Z,58.79
2019-04-30T06:31:00.862Z,54.55
2019-04-30T06:33:32.885Z,52.08
2019-04-30T06:36:04.746Z,52.05
2019-04-30T06:38:35.990Z,52.43
2019-04-30T06:41:08.713Z,49.84
2019-04-30T06:43:41.973Z,48.40
2019-04-30T06:46:13.618Z,47.92
2019-04-30T06:48:48.657Z,45.77
2019-04-30T06:51:19.001Z,45.26
2019-04-30T06:53:51.576Z,45.74
2019-04-30T06:56:23.983Z,47.45
2019-04-30T06:58:56.742Z,45.75
2019-04-30T07:01:30.040Z,43.95
2019-04-30T07:04:01.283Z,46.34
2019-04-30T07:06:37.106Z,44.61
2019-04-30T07:09:49.862Z,45.93
2019-04-30T07:12:27.322Z,46.81
2019-04-30T07:14:54.072Z,46.55
2019-04-30T07:17:29.087Z,44.84
2019-04-30T07:19:59.854Z,46.91
2019-04-30T07:22:40.166Z,44.77
2019-04-30T07:25:06.368Z,44.91
2019-04-30T07:27:39.936Z,44.14
2019-04-30T07:30:10.532Z,44.70
2019-04-30T07:32:43.568Z,44.66
2019-04-30T07:35:14.860Z,44.55
2019-04-30T07:37:45.961Z,42.76
2019-04-30T07:40:19.195Z,43.25
2019-04-30T07:42:50.744Z,43.80
2019-04-30T07:45:25.691Z,44.42
2019-04-30T07:47:59.416Z,44.72
2019-04-30T07:50:37.056Z,42.76
2019-04-30T07:53:11.325Z,43.81
2019-04-30T07:55:43.540Z,45.05
2019-04-30T07:58:16.629Z,46.71
2019-04-30T08:00:49.719Z,47.29
2019-04-30T08:03:33.730Z,45.23
2019-04-30T08:06:09.803Z,44.91
2019-04-30T08:08:41.012Z,44.86
2019-04-30T08:11:23.052Z,46.23
2019-04-30T08:13:49.156Z,44.26
2019-04-30T08:16:21.168Z,44.77
2019-04-30T08:18:53.446Z,47.04
2019-04-30T08:21:24.507Z,46.68
2019-04-30T08:23:55.968Z,46.68
2019-04-30T08:26:28.726Z,45.84
2019-04-30T08:28:59.949Z,46.46
2019-04-30T08:31:31.467Z,45.22
2019-04-30T08:34:02.862Z,45.25
2019-04-30T08:36:34.041Z,46.10
2019-04-30T08:39:09.667Z,46.74
2019-04-30T08:41:41.235Z,49.33
2019-04-30T08:44:12.741Z,46.77
2019-04-30T08:46:43.940Z,45.35
2019-04-30T08:49:15.707Z,47.06
2019-04-30T08:51:49.087Z,48.50
2019-04-30T08:54:20.531Z,48.09
2019-04-30T08:56:51.907Z,48.04
2019-04-30T08:59:22.949Z,49.14
2019-04-30T09:01:55.224Z,48.80
2019-04-30T09:04:30.660Z,47.45
2019-04-30T09:07:03.959Z,48.96
2019-04-30T09:09:35.114Z,48.25
2019-04-30T09:12:09.833Z,50.79
2019-04-30T09:14:41.917Z,49.39
2019-04-30T09:17:13.348Z,50.83
2019-04-30T09:19:45.640Z,50.59
2019-04-30T09:22:16.945Z,50.98
2019-04-30T09:24:49.760Z,50.69
2019-04-30T09:27:21.025Z,51.43
2019-04-30T09:29:52.206Z,51.86
2019-04-30T09:32:23.630Z,52.78
2019-04-30T09:34:58.714Z,50.42
2019-04-30T09:37:31.814Z,47.85
2019-04-30T09:40:15.307Z,49.41
2019-04-30T09:42:39.090Z,49.01
2019-04-30T09:45:10.513Z,51.42
2019-04-30T09:47:42.167Z,50.15
2019-04-30T09:50:15.919Z,49.15
2019-04-30T09:52:49.676Z,50.90
2019-04-30T09:55:22.683Z,50.11
2019-04-30T09:57:54.264Z,47.43
2019-04-30T10:00:25.737Z,47.53
2019-04-30T10:02:59.430Z,46.46
2019-04-30T10:05:29.844Z,48.03
2019-04-30T10:08:01.433Z,48.53
2019-04-30T10:10:39.180Z,48.91
2019-04-30T10:13:10.314Z,50.78
2019-04-30T10:16:06.346Z,49.80
2019-04-30T10:18:38.098Z,49.79
2019-04-30T10:21:10.514Z,50.28
2019-04-30T10:23:42.043Z,50.38
2019-04-30T10:26:14.321Z,49.17
2019-04-30T10:28:48.677Z,50.16
2019-04-30T10:31:20.949Z,49.53
2019-04-30T10:33:52.256Z,48.44
2019-04-30T10:36:24.398Z,46.21
2019-04-30T10:38:55.572Z,47.59
2019-04-30T10:41:34.497Z,48.49
2019-04-30T10:44:08.876Z,46.98
2019-04-30T10:46:40.434Z,46.71
2019-04-30T10:49:11.947Z,47.23
2019-04-30T10:51:43.492Z,48.29
2019-04-30T10:54:23.968Z,47.99
2019-04-30T10:56:49.039Z,47.69
2019-04-30T10:59:20.423Z,46.14
2019-04-30T11:01:54.351Z,48.19
2019-04-30T11:04:25.807Z,47.68
2019-04-30T11:07:00.185Z,46.62
2019-04-30T11:09:32.941Z,46.44
2019-04-30T11:12:04.738Z,47.47
2019-04-30T11:14:35.864Z,43.78
2019-04-30T11:17:09.914Z,44.77
2019-04-30T11:19:41.824Z,45.39
2019-04-30T11:22:13.264Z,47.14
2019-04-30T11:24:58.188Z,46.41
2019-04-30T11:27:20.657Z,47.41
2019-04-30T11:29:52.973Z,47.67
2019-04-30T11:32:25.293Z,45.93
2019-04-30T11:34:56.920Z,46.29
2019-04-30T11:37:29.526Z,46.04
2019-04-30T11:40:00.573Z,46.08
2019-04-30T11:42:32.394Z,46.31
2019-04-30T11:45:05.215Z,44.66
2019-04-30T11:47:37.506Z,45.23
2019-04-30T11:50:12.725Z,46.68
2019-04-30T11:52:45.012Z,46.10
2019-04-30T11:55:19.351Z,46.76
2019-04-30T11:57:52.939Z,47.84
2019-04-30T12:00:30.050Z,48.03
2019-04-30T12:03:01.179Z,45.70
2019-04-30T12:05:32.296Z,45.82
2019-04-30T12:08:14.395Z,44.54
2019-04-30T12:10:50.350Z,45.70
2019-04-30T12:13:29.485Z,45.66
2019-04-30T12:16:01.238Z,45.79
2019-04-30T12:18:34.282Z,46.36
2019-04-30T12:21:06.518Z,46.29
2019-04-30T12:23:37.651Z,45.69
2019-04-30T12:26:09.825Z,45.92
2019-04-30T12:28:42.430Z,46.06
2019-04-30T12:31:13.895Z,46.29
2019-04-30T12:33:46.846Z,46.19
2019-04-30T12:36:19.533Z,46.37
2019-04-30T12:38:52.107Z,47.75
2019-04-30T12:41:26.425Z,46.77
2019-04-30T12:43:57.573Z,47.31
2019-04-30T12:46:29.746Z,48.80
2019-04-30T12:49:10.399Z,47.88
2019-04-30T12:51:58.740Z,46.75
2019-04-30T12:54:36.993Z,45.62
2019-04-30T12:57:20.044Z,45.27
2019-04-30T12:59:52.251Z,46.64
2019-04-30T13:02:23.774Z,45.95
2019-04-30T13:05:00.234Z,44.71
2019-04-30T13:07:31.043Z,46.45
2019-04-30T13:10:07.259Z,47.33
2019-04-30T13:12:39.439Z,47.25
2019-04-30T13:15:12.484Z,46.77
2019-04-30T13:17:43.686Z,46.99
2019-04-30T13:20:21.140Z,46.75
2019-04-30T13:22:51.919Z,47.51
2019-04-30T13:25:30.875Z,48.41
2019-04-30T13:28:02.396Z,48.54
2019-04-30T13:30:33.750Z,48.27
2019-04-30T13:33:10.318Z,48.76
2019-04-30T13:35:41.703Z,49.90
2019-04-30T13:38:21.210Z,49.12
2019-04-30T13:41:18.807Z,49.54
2019-04-30T13:44:09.490Z,49.89
2019-04-30T13:46:40.606Z,49.63
2019-04-30T13:49:12.980Z,49.52
2019-04-30T13:51:44.065Z,50.44
2019-04-30T13:54:15.168Z,50.72
2019-04-30T13:56:46.628Z,50.50
2019-04-30T13:59:18.077Z,49.62
2019-04-30T14:01:50.481Z,50.07
2019-04-30T14:04:46.733Z,49.96
2019-04-30T14:07:50.362Z,49.47
2019-04-30T14:10:21.408Z,49.62
2019-04-30T14:12:56.717Z,48.53
2019-04-30T14:15:29.207Z,48.52
2019-04-30T14:18:02.118Z,47.65
2019-04-30T14:20:33.214Z,48.47
2019-04-30T14:23:04.542Z,47.28
2019-04-30T14:25:36.035Z,48.11
2019-04-30T14:28:09.424Z,47.82
2019-04-30T14:30:42.265Z,48.41
2019-04-30T14:33:23.381Z,49.00
2019-04-30T14:35:46.187Z,47.84
2019-04-30T14:38:19.013Z,47.66
2019-04-30T14:40:51.163Z,48.91
2019-04-30T14:43:51.293Z,48.36
2019-04-30T14:46:42.942Z,48.90
2019-04-30T14:49:43.150Z,48.44
2019-04-30T14:52:15.249Z,49.66
2019-04-30T14:55:04.605Z,49.64
2019-04-30T14:57:51.324Z,49.54
2019-04-30T15:00:46.498Z,49.08
2019-04-30T15:03:20.309Z,49.58
2019-04-30T15:05:53.707Z,50.51
2019-04-30T15:08:24.886Z,50.55
2019-04-30T15:10:55.994Z,52.03
2019-04-30T15:13:29.368Z,52.13
2019-04-30T15:16:01.721Z,50.68
2019-04-30T15:18:32.925Z,51.00
2019-04-30T15:21:03.954Z,51.12
2019-04-30T15:24:06.152Z,50.74
2019-04-30T15:26:40.684Z,51.97
2019-04-30T15:29:13.378Z,50.72
2019-04-30T15:31:43.052Z,50.26
2019-04-30T15:34:15.343Z,48.35
2019-04-30T15:36:46.582Z,48.55
2019-04-30T15:39:30.622Z,48.42
2019-04-30T15:42:00.643Z,48.91
2019-04-30T15:44:40.231Z,48.73
2019-04-30T15:47:09.224Z,48.45
2019-04-30T15:49:40.813Z,48.11
2019-04-30T15:52:11.870Z,47.06
2019-04-30T15:54:49.077Z,47.24
2019-04-30T15:57:20.729Z,48.36
2019-04-30T15:59:51.800Z,47.67
2019-04-30T16:02:53.679Z,46.73
2019-04-30T16:05:32.227Z,47.75
2019-04-30T16:08:21.401Z,47.18
2019-04-30T16:11:00.433Z,47.01
2019-04-30T16:13:36.101Z,45.82
2019-04-30T16:16:09.079Z,47.13
2019-04-30T16:18:50.397Z,46.25
2019-04-30T16:21:23.327Z,46.42
2019-04-30T16:23:56.207Z,46.12
2019-04-30T16:26:29.103Z,46.28
2019-04-30T16:29:01.773Z,47.04
2019-04-30T16:31:33.107Z,46.74
2019-04-30T16:34:05.745Z,47.35
2019-04-30T16:36:39.027Z,47.56
2019-04-30T16:39:11.435Z,48.04
2019-04-30T16:41:42.736Z,47.96
2019-04-30T16:44:14.163Z,48.24
2019-04-30T16:46:46.244Z,47.97
2019-04-30T16:49:18.524Z,48.78
2019-04-30T16:51:50.163Z,48.45
2019-04-30T16:54:25.222Z,47.53
2019-04-30T16:57:04.048Z,48.96
2019-04-30T16:59:41.300Z,49.07
2019-04-30T17:02:13.626Z,48.98
2019-04-30T17:05:19.775Z,49.38
2019-04-30T17:08:29.057Z,49.98
2019-04-30T17:11:25.081Z,49.97
2019-04-30T17:14:00.738Z,50.01
2019-04-30T17:16:32.391Z,50.78
2019-04-30T17:19:05.525Z,51.47
2019-04-30T17:21:37.046Z,51.65
2019-04-30T17:24:08.813Z,52.53
2019-04-30T17:26:40.974Z,52.34
2019-04-30T17:29:12.109Z,52.95
2019-04-30T17:31:43.794Z,53.12
2019-04-30T17:34:16.230Z,53.91
2019-04-30T17:36:49.591Z,54.64
2019-04-30T17:39:22.655Z,55.53
2019-04-30T17:41:55.364Z,55.70
2019-04-30T17:44:28.908Z,55.86
2019-04-30T17:47:02.091Z,55.63
2019-04-30T17:49:34.717Z,56.21
2019-04-30T17:52:08.860Z,56.83
2019-04-30T17:54:40.162Z,57.41
2019-04-30T17:57:12.270Z,57.93
2019-04-30T17:59:43.593Z,57.93
2019-04-30T18:02:16.692Z,57.76
2019-04-30T18:05:44.495Z,58.19
2019-04-30T18:08:17.740Z,58.60
2019-04-30T18:10:48.868Z,59.22
2019-04-30T18:13:22.031Z,59.29
2019-04-30T18:15:54.037Z,58.40
2019-04-30T18:18:34.485Z,58.32
2019-04-30T18:21:23.655Z,58.41
2019-04-30T18:24:13.109Z,58.48
2019-04-30T18:26:51.034Z,58.83
2019-04-30T18:29:24.288Z,59.16
2019-04-30T18:31:55.989Z,58.75
2019-04-30T18:34:29.216Z,59.11
2019-04-30T18:37:00.787Z,59.53
2019-04-30T18:39:31.988Z,59.33
2019-04-30T18:42:03.276Z,59.34
2019-04-30T18:44:35.060Z,59.72
2019-04-30T18:47:08.523Z,60.12
2019-04-30T18:49:40.454Z,60.40
2019-04-30T18:52:12.925Z,60.45
2019-04-30T18:54:45.204Z,60.49
2019-04-30T18:57:16.881Z,60.19
2019-04-30T18:59:48.395Z,60.06
2019-04-30T19:02:21.363Z,60.34
2019-04-30T19:04:52.886Z,60.23
2019-04-30T19:07:44.481Z,59.76
2019-04-30T19:10:23.744Z,59.92
2019-04-30T19:13:15.636Z,59.93
2019-04-30T19:16:22.081Z,60.41
2019-04-30T19:19:00.922Z,60.96
2019-04-30T19:21:33.051Z,60.79
2019-04-30T19:24:04.529Z,61.27
2019-04-30T19:26:36.131Z,61.37
2019-04-30T19:29:07.878Z,61.67
2019-04-30T19:31:41.861Z,61.76
2019-04-30T19:34:13.288Z,61.01
2019-04-30T19:36:44.468Z,61.43
2019-04-30T19:39:19.391Z,61.46
2019-04-30T19:41:51.899Z,61.00
2019-04-30T19:44:23.208Z,61.29
2019-04-30T19:46:59.925Z,61.69
2019-04-30T19:49:31.220Z,61.60
2019-04-30T19:52:08.545Z,62.41
2019-04-30T19:54:39.179Z,62.93
2019-04-30T19:57:10.376Z,63.41
2019-04-30T19:59:43.722Z,64.03
2019-04-30T20:02:16.238Z,63.69
2019-04-30T20:04:48.369Z,63.52
2019-04-30T20:07:19.773Z,63.99
2019-04-30T20:10:00.626Z,63.75
2019-04-30T20:12:24.252Z,64.32
2019-04-30T20:14:56.703Z,64.02
2019-04-30T20:17:29.556Z,64.11
2019-04-30T20:20:01.077Z,64.27
2019-04-30T20:22:32.162Z,64.04
2019-04-30T20:25:03.381Z,64.20
2019-04-30T20:27:36.479Z,63.90
2019-04-30T20:30:09.627Z,64.13
2019-04-30T20:32:41.012Z,64.21
2019-04-30T20:35:12.838Z,64.56
2019-04-30T20:38:01.633Z,65.26
2019-04-30T20:40:43.348Z,65.54
2019-04-30T20:43:08.568Z,65.78
2019-04-30T20:45:40.250Z,65.86
2019-04-30T20:48:11.500Z,66.38
2019-04-30T20:50:43.817Z,66.15
2019-04-30T20:53:14.961Z,65.73
2019-04-30T20:55:46.097Z,65.69
2019-04-30T20:58:18.335Z,65.63
2019-04-30T21:01:00.633Z,65.26
2019-04-30T21:03:25.445Z,65.71
2019-04-30T21:06:00.363Z,65.78
2019-04-30T21:08:30.274Z,64.92
2019-04-30T21:11:01.579Z,65.26
2019-04-30T21:13:32.806Z,64.39
2019-04-30T21:16:04.451Z,64.97
2019-04-30T21:18:36.573Z,64.76
2019-04-30T21:21:07.982Z,65.05
2019-04-30T21:23:39.441Z,65.59
2019-04-30T21:26:12.364Z,66.10
2019-04-30T21:28:43.889Z,66.57
2019-04-30T21:31:49.247Z,66.47
2019-04-30T21:34:48.675Z,66.82
2019-04-30T21:37:21.653Z,67.09
2019-04-30T21:39:53.520Z,67.08
2019-04-30T21:42:26.889Z,67.11
2019-04-30T21:45:00.439Z,67.39
2019-04-30T21:47:31.543Z,67.76
2019-04-30T21:50:04.015Z,68.96
2019-04-30T21:52:35.085Z,69.07
2019-04-30T21:55:06.642Z,69.47
2019-04-30T21:57:39.198Z,70.15
2019-04-30T22:00:16.155Z,70.74
2019-04-30T22:02:50.091Z,71.39
2019-04-30T22:05:21.227Z,71.67
2019-04-30T22:07:53.640Z,71.72
2019-04-30T22:10:24.711Z,71.67
2019-04-30T22:12:58.620Z,72.04
2019-04-30T22:15:30.434Z,71.93
2019-04-30T22:18:01.613Z,72.35
2019-04-30T22:20:35.489Z,73.11
2019-04-30T22:23:08.682Z,73.50
2019-04-30T22:25:39.839Z,74.07
2019-04-30T22:28:12.832Z,74.33
2019-04-30T22:30:45.603Z,75.00
2019-04-30T22:33:17.077Z,75.28
2019-04-30T22:35:55.823Z,75.25
2019-04-30T22:38:30.854Z,75.63
2019-04-30T22:41:02.368Z,76.52
2019-04-30T22:43:33.518Z,76.77
2019-04-30T22:46:12.584Z,77.61
2019-04-30T22:48:45.022Z,76.74
2019-04-30T22:51:17.507Z,76.15
2019-04-30T22:53:48.857Z,76.74
2019-04-30T22:56:20.308Z,78.02
2019-04-30T22:58:51.508Z,78.61
2019-04-30T23:01:31.611Z,78.75
2019-04-30T23:04:06.223Z,79.07
2019-04-30T23:06:37.579Z,78.80
2019-04-30T23:09:12.299Z,78.56
2019-04-30T23:11:44.906Z,80.10
2019-04-30T23:14:16.360Z,80.56
2019-04-30T23:16:48.314Z,80.43
2019-04-30T23:19:20.508Z,80.31
2019-04-30T23:21:51.938Z,81.03
2019-04-30T23:24:24.547Z,81.36
2019-04-30T23:26:56.181Z,81.37
2019-04-30T23:29:27.228Z,82.10
2019-04-30T23:31:58.371Z,81.26
2019-04-30T23:34:29.720Z,80.67
2019-04-30T23:37:00.976Z,81.86
2019-04-30T23:39:33.972Z,81.98
2019-04-30T23:42:05.207Z,82.21
2019-04-30T23:44:40.351Z,82.28
2019-04-30T23:47:11.498Z,82.14
2019-04-30T23:49:43.317Z,83.11
2019-04-30T23:52:16.143Z,82.87
2019-04-30T23:54:50.471Z,82.70
2019-04-30T23:57:21.950Z,82.87
2019-04-30T23:59:53.067Z,82.37
